createdAt,value
2018-12-21T00:00:33.426Z,100863.00
2018-12-21T00:03:00.817Z,100862.18
2018-12-21T00:05:28.222Z,100860.64
2018-12-21T00:07:55.622Z,100857.39
2018-12-21T00:10:23.026Z,100851.88
2018-12-21T00:12:50.426Z,100850.73
2018-12-21T00:15:17.854Z,100846.38
2018-12-21T00:17:45.255Z,100841.09
2018-12-21T00:20:12.654Z,100845.78
2018-12-21T00:22:40.063Z,100834.48
2018-12-21T00:25:07.554Z,100829.69
2018-12-21T00:27:34.961Z,100834.31
2018-12-21T00:30:02.471Z,100832.45
2018-12-21T00:32:35.617Z,100832.45
2018-12-21T00:35:08.626Z,100825.82
2018-12-21T00:37:41.714Z,100826.94
2018-12-21T00:40:14.607Z,100830.02
2018-12-21T00:42:44.442Z,100823.06
2018-12-21T00:45:13.753Z,100820.31
2018-12-21T00:47:41.157Z,100830.34
2018-12-21T00:50:09.289Z,100824.84
2018-12-21T00:52:36.690Z,100819.33
2018-12-21T00:55:04.597Z,100822.58
2018-12-21T00:57:32.002Z,100822.87
2018-12-21T00:59:59.418Z,100823.45
2018-12-21T01:02:26.826Z,100822.64
2018-12-21T01:04:54.232Z,100822.08
2018-12-21T01:07:21.639Z,100816.48
2018-12-21T01:09:49.036Z,100814.22
2018-12-21T01:12:16.557Z,100818.28
2018-12-21T01:14:43.974Z,100813.86
2018-12-21T01:17:11.377Z,100809.46
2018-12-21T01:19:38.881Z,100810.51
2018-12-21T01:22:06.323Z,100811.89
2018-12-21T01:24:33.720Z,100807.69
2018-12-21T01:27:01.121Z,100810.87
2018-12-21T01:29:28.530Z,100804.80
2018-12-21T01:31:55.937Z,100808.11
2018-12-21T01:34:23.347Z,100811.09
2018-12-21T01:36:50.753Z,100809.48
2018-12-21T01:39:18.467Z,100807.55
2018-12-21T01:41:45.867Z,100810.37
2018-12-21T01:44:13.272Z,100812.87
2018-12-21T01:46:40.758Z,100815.39
2018-12-21T01:49:08.161Z,100808.73
2018-12-21T01:51:35.570Z,100814.18
2018-12-21T01:54:02.974Z,100812.25
2018-12-21T01:56:30.369Z,100802.54
2018-12-21T01:58:57.786Z,100804.96
2018-12-21T02:01:25.186Z,100800.77
2018-12-21T02:03:52.593Z,100804.80
2018-12-21T02:06:19.995Z,100799.28
2018-12-21T02:08:47.414Z,100800.36
2018-12-21T02:11:14.802Z,100795.91
2018-12-21T02:13:42.215Z,100786.66
2018-12-21T02:16:09.615Z,100787.28
2018-12-21T02:18:37.024Z,100782.59
2018-12-21T02:21:04.430Z,100780.98
2018-12-21T02:23:31.839Z,100780.73
2018-12-21T02:25:59.249Z,100780.80
2018-12-21T02:28:26.654Z,100774.90
2018-12-21T02:30:54.061Z,100768.57
2018-12-21T02:33:21.548Z,100767.75
2018-12-21T02:35:48.952Z,100768.24
2018-12-21T02:38:16.354Z,100768.50
2018-12-21T02:40:43.750Z,100767.69
2018-12-21T02:43:11.182Z,100767.42
2018-12-21T02:45:38.585Z,100759.16
2018-12-21T02:48:05.966Z,100762.17
2018-12-21T02:50:33.380Z,100756.11
2018-12-21T02:53:00.763Z,100760.54
2018-12-21T02:55:28.163Z,100754.31
2018-12-21T02:57:55.573Z,100753.56
2018-12-21T03:00:22.987Z,100757.20
2018-12-21T03:02:50.472Z,100748.70
2018-12-21T03:05:17.870Z,100737.11
2018-12-21T03:07:45.266Z,100739.95
2018-12-21T03:10:12.677Z,100740.75
2018-12-21T03:12:40.074Z,100737.50
2018-12-21T03:15:07.603Z,100733.96
2018-12-21T03:17:34.987Z,100726.81
2018-12-21T03:20:02.396Z,100731.77
2018-12-21T03:22:29.876Z,100728.13
2018-12-21T03:24:57.273Z,100723.92
2018-12-21T03:27:24.665Z,100718.81
2018-12-21T03:29:52.075Z,100721.80
2018-12-21T03:32:19.465Z,100724.63
2018-12-21T03:34:46.963Z,100721.64
2018-12-21T03:37:14.356Z,100719.22
2018-12-21T03:39:41.757Z,100711.73
2018-12-21T03:42:09.175Z,100702.92
2018-12-21T03:44:36.577Z,100701.55
2018-12-21T03:47:03.972Z,100708.69
2018-12-21T03:49:31.386Z,100700.73
2018-12-21T03:51:58.780Z,100689.81
2018-12-21T03:54:26.184Z,100684.45
2018-12-21T03:56:53.586Z,100690.28
2018-12-21T03:59:20.986Z,100685.89
2018-12-21T04:01:48.380Z,100677.97
2018-12-21T04:04:15.779Z,100674.16
2018-12-21T04:06:43.178Z,100674.16
2018-12-21T04:09:10.569Z,100675.77
2018-12-21T04:11:37.974Z,100664.04
2018-12-21T04:14:05.366Z,100660.95
2018-12-21T04:16:32.781Z,100657.98
2018-12-21T04:19:00.184Z,100661.03
2018-12-21T04:21:27.676Z,100660.54
2018-12-21T04:23:55.063Z,100654.80
2018-12-21T04:26:22.463Z,100650.74
2018-12-21T04:28:49.927Z,100652.45
2018-12-21T04:31:17.351Z,100644.59
2018-12-21T04:33:44.745Z,100644.10
2018-12-21T04:36:12.158Z,100644.66
2018-12-21T04:38:39.570Z,100645.22
2018-12-21T04:41:07.070Z,100638.11
2018-12-21T04:43:34.464Z,100629.99
2018-12-21T04:46:01.864Z,100632.19
2018-12-21T04:48:29.260Z,100636.31
2018-12-21T04:50:56.669Z,100626.69
2018-12-21T04:53:24.059Z,100629.20
2018-12-21T04:55:51.745Z,100627.57
2018-12-21T04:58:19.162Z,100616.33
2018-12-21T05:00:46.647Z,100618.59
2018-12-21T05:03:14.084Z,100614.95
2018-12-21T05:05:41.475Z,100614.07
2018-12-21T05:08:08.878Z,100613.81
2018-12-21T05:10:36.270Z,100612.44
2018-12-21T05:13:03.675Z,100609.94
2018-12-21T05:15:31.076Z,100601.91
2018-12-21T05:17:58.485Z,100602.73
2018-12-21T05:20:25.870Z,100601.29
2018-12-21T05:22:53.281Z,100597.39
2018-12-21T05:25:20.665Z,100595.78
2018-12-21T05:27:48.098Z,100593.66
2018-12-21T05:30:15.499Z,100593.43
2018-12-21T05:32:42.907Z,100589.30
2018-12-21T05:35:10.299Z,100582.66
2018-12-21T05:37:37.710Z,100574.40
2018-12-21T05:40:05.733Z,100574.40
2018-12-21T05:42:33.138Z,100569.16
2018-12-21T05:45:00.537Z,100572.63
2018-12-21T05:47:27.946Z,100560.72
2018-12-21T05:49:55.341Z,100556.75
2018-12-21T05:52:22.758Z,100551.17
2018-12-21T05:54:50.155Z,100542.58
2018-12-21T05:57:17.546Z,100536.11
2018-12-21T05:59:44.947Z,100529.00
2018-12-21T06:02:12.347Z,100532.46
2018-12-21T06:04:39.745Z,100531.91
2018-12-21T06:07:07.141Z,100529.15
2018-12-21T06:09:34.546Z,100518.22
2018-12-21T06:12:01.947Z,100516.05
2018-12-21T06:14:29.350Z,100509.40
2018-12-21T06:16:56.737Z,100514.19
2018-12-21T06:19:24.154Z,100515.72
2018-12-21T06:21:51.542Z,100507.13
2018-12-21T06:24:18.942Z,100506.83
2018-12-21T06:26:46.338Z,100499.28
2018-12-21T06:31:47.479Z,100496.78
2018-12-21T06:34:14.867Z,100492.07
2018-12-21T06:36:42.267Z,100495.08
2018-12-21T06:39:09.667Z,100480.50
2018-12-21T06:41:37.061Z,100484.55
2018-12-21T06:44:04.493Z,100479.38
2018-12-21T06:46:32.070Z,100474.44
2018-12-21T06:48:59.470Z,100476.63
2018-12-21T06:51:26.878Z,100469.83
2018-12-21T06:53:54.277Z,100473.14
2018-12-21T06:56:21.679Z,100466.81
2018-12-21T06:58:49.086Z,100459.05
2018-12-21T07:01:16.506Z,100454.84
2018-12-21T07:03:43.903Z,100449.66
2018-12-21T07:06:11.303Z,100446.44
2018-12-21T07:08:38.692Z,100440.37
2018-12-21T07:11:06.094Z,100434.27
2018-12-21T07:13:33.489Z,100433.97
2018-12-21T07:16:00.890Z,100427.88
2018-12-21T07:18:28.289Z,100426.75
2018-12-21T07:20:55.698Z,100428.13
2018-12-21T07:23:27.140Z,100418.83
2018-12-21T07:25:52.505Z,100413.55
2018-12-21T07:28:19.894Z,100413.81
2018-12-21T07:30:47.302Z,100421.47
2018-12-21T07:33:14.706Z,100406.92
2018-12-21T07:35:42.132Z,100401.42
2018-12-21T07:38:09.530Z,100397.59
2018-12-21T07:40:37.052Z,100387.06
2018-12-21T07:43:04.442Z,100387.97
2018-12-21T07:45:31.862Z,100381.90
2018-12-21T07:47:59.254Z,100380.19
2018-12-21T07:50:26.670Z,100377.21
2018-12-21T07:52:54.059Z,100372.05
2018-12-21T07:55:21.451Z,100367.74
2018-12-21T07:57:48.849Z,100360.72
2018-12-21T08:00:16.241Z,100360.97
2018-12-21T08:02:43.642Z,100363.95
2018-12-21T08:05:11.035Z,100359.90
2018-12-21T08:07:38.448Z,100354.17
2018-12-21T08:10:10.136Z,100355.41
2018-12-21T08:12:37.534Z,100347.71
2018-12-21T08:15:05.542Z,100343.92
2018-12-21T08:17:32.958Z,100346.67
2018-12-21T08:20:00.351Z,100347.31
2018-12-21T08:22:27.755Z,100335.75
2018-12-21T08:24:55.159Z,100331.95
2018-12-21T08:27:22.562Z,100327.48
2018-12-21T08:29:49.967Z,100325.55
2018-12-21T08:32:17.390Z,100318.67
2018-12-21T08:34:44.782Z,100314.30
2018-12-21T08:37:12.198Z,100316.00
2018-12-21T08:39:39.586Z,100311.55
2018-12-21T08:42:06.995Z,100308.37
2018-12-21T08:44:34.386Z,100304.39
2018-12-21T08:47:01.817Z,100298.46
2018-12-21T08:49:29.206Z,100291.27
2018-12-21T08:51:56.616Z,100294.81
2018-12-21T08:54:24.024Z,100277.52
2018-12-21T08:56:51.511Z,100267.88
2018-12-21T08:59:18.918Z,100263.28
2018-12-21T09:01:46.314Z,100264.88
2018-12-21T09:04:13.716Z,100253.65
2018-12-21T09:06:41.107Z,100237.27
2018-12-21T09:09:08.630Z,100240.59
2018-12-21T09:11:36.027Z,100236.71
2018-12-21T09:14:03.421Z,100232.67
2018-12-21T09:16:30.814Z,100220.63
2018-12-21T09:18:58.265Z,100215.43
2018-12-21T09:21:25.718Z,100212.84
2018-12-21T09:24:00.877Z,100197.03
2018-12-21T09:26:22.518Z,100200.25
2018-12-21T09:28:49.918Z,100186.27
2018-12-21T09:31:17.308Z,100190.41
2018-12-21T09:33:44.714Z,100180.34
2018-12-21T09:36:12.110Z,100181.38
2018-12-21T09:38:39.505Z,100168.30
2018-12-21T09:41:06.912Z,100164.52
2018-12-21T09:43:34.333Z,100166.23
2018-12-21T09:46:01.735Z,100165.98
2018-12-21T09:48:29.121Z,100155.09
2018-12-21T09:50:56.550Z,100151.06
2018-12-21T09:53:23.945Z,100135.67
2018-12-21T09:55:51.352Z,100131.41
2018-12-21T09:58:18.738Z,100118.55
2018-12-21T10:00:46.142Z,100117.27
2018-12-21T10:03:13.534Z,100112.24
2018-12-21T10:05:40.946Z,100102.95
2018-12-21T10:08:08.340Z,100102.73
2018-12-21T10:10:35.752Z,100093.75
2018-12-21T10:13:03.146Z,100086.66
2018-12-21T10:15:30.549Z,100086.66
2018-12-21T10:17:57.942Z,100078.63
2018-12-21T10:20:25.347Z,100068.99
2018-12-21T10:22:52.739Z,100062.36
2018-12-21T10:25:20.148Z,100050.45
2018-12-21T10:27:47.538Z,100050.77
2018-12-21T10:30:14.941Z,100036.45
2018-12-21T10:32:42.348Z,100029.00
2018-12-21T10:35:09.751Z,100024.19
2018-12-21T10:37:37.142Z,100018.12
2018-12-21T10:40:06.306Z,100020.31
2018-12-21T10:42:33.705Z,100008.48
2018-12-21T10:45:01.106Z,100001.61
2018-12-21T10:47:28.502Z,99993.01
2018-12-21T10:49:55.898Z,99987.75
2018-12-21T10:52:23.294Z,99970.90
2018-12-21T10:54:50.689Z,99973.90
2018-12-21T10:57:18.179Z,99970.90
2018-12-21T10:59:45.575Z,99961.05
2018-12-21T11:02:12.965Z,99953.36
2018-12-21T11:04:40.363Z,99955.55
2018-12-21T11:07:07.758Z,99942.00
2018-12-21T11:09:35.155Z,99931.12
2018-12-21T11:12:02.560Z,99928.27
2018-12-21T11:14:30.030Z,99924.60
2018-12-21T11:16:57.441Z,99909.47
2018-12-21T11:19:24.834Z,99894.11
2018-12-21T11:21:52.234Z,99893.30
2018-12-21T11:24:19.626Z,99884.13
2018-12-21T11:26:47.845Z,99878.06
2018-12-21T11:29:15.231Z,99868.99
2018-12-21T11:31:42.638Z,99864.87
2018-12-21T11:34:10.042Z,99857.17
2018-12-21T11:36:37.525Z,99852.12
2018-12-21T11:39:06.061Z,99830.21
2018-12-21T11:41:33.499Z,99827.14
2018-12-21T11:44:00.886Z,99816.13
2018-12-21T11:46:28.276Z,99812.32
2018-12-21T11:48:55.677Z,99806.04
2018-12-21T11:51:23.071Z,99796.16
2018-12-21T11:53:50.476Z,99797.78
2018-12-21T11:56:17.865Z,99791.93
2018-12-21T11:58:45.270Z,99785.27
2018-12-21T12:01:12.665Z,99769.35
2018-12-21T12:03:40.054Z,99768.65
2018-12-21T12:06:07.449Z,99763.04
2018-12-21T12:08:34.847Z,99762.13
2018-12-21T12:11:02.246Z,99741.23
2018-12-21T12:13:29.651Z,99736.55
2018-12-21T12:15:57.048Z,99730.58
2018-12-21T12:18:24.445Z,99733.12
2018-12-21T12:20:51.838Z,99722.67
2018-12-21T12:23:19.242Z,99716.82
2018-12-21T12:25:46.634Z,99703.77
2018-12-21T12:28:14.035Z,99696.53
2018-12-21T12:30:41.430Z,99696.29
2018-12-21T12:33:08.831Z,99675.66
2018-12-21T12:35:36.224Z,99677.17
2018-12-21T12:38:03.623Z,99673.25
2018-12-21T12:40:31.010Z,99667.19
2018-12-21T12:42:58.422Z,99665.45
2018-12-21T12:45:25.822Z,99659.03
2018-12-21T12:47:53.223Z,99657.66
2018-12-21T12:50:20.802Z,99645.52
2018-12-21T12:52:48.191Z,99646.08
2018-12-21T12:55:15.683Z,99640.93
2018-12-21T12:57:43.075Z,99633.00
2018-12-21T13:00:11.032Z,99625.09
2018-12-21T13:02:38.486Z,99619.95
2018-12-21T13:05:06.309Z,99611.23
2018-12-21T13:07:33.686Z,99616.73
2018-12-21T13:10:01.160Z,99610.99
2018-12-21T13:12:28.542Z,99596.22
2018-12-21T13:14:55.946Z,99583.83
2018-12-21T13:17:23.337Z,99584.76
2018-12-21T13:19:50.735Z,99576.29
2018-12-21T13:22:18.142Z,99567.58
2018-12-21T13:24:45.527Z,99560.46
2018-12-21T13:27:12.915Z,99550.84
2018-12-21T13:29:40.322Z,99550.73
2018-12-21T13:32:07.715Z,99543.41
2018-12-21T13:34:35.114Z,99541.33
2018-12-21T13:37:02.514Z,99536.08
2018-12-21T13:39:29.910Z,99525.64
2018-12-21T13:41:57.302Z,99517.39
2018-12-21T13:44:24.698Z,99508.11
2018-12-21T13:46:52.085Z,99503.75
2018-12-21T13:49:19.485Z,99498.94
2018-12-21T13:51:46.870Z,99498.35
2018-12-21T13:54:14.293Z,99485.97
2018-12-21T13:56:43.090Z,99480.59
2018-12-21T13:59:10.673Z,99476.67
2018-12-21T14:01:38.074Z,99471.31
2018-12-21T14:04:05.463Z,99463.39
2018-12-21T14:06:32.863Z,99459.50
2018-12-21T14:09:00.250Z,99454.12
2018-12-21T14:11:27.661Z,99451.37
2018-12-21T14:13:55.063Z,99452.65
2018-12-21T14:16:22.458Z,99455.16
2018-12-21T14:18:49.850Z,99445.89
2018-12-21T14:21:17.250Z,99432.14
2018-12-21T14:23:44.637Z,99439.46
2018-12-21T14:26:12.038Z,99436.03
2018-12-21T14:28:39.508Z,99437.61
2018-12-21T14:31:07.532Z,99438.42
2018-12-21T14:33:35.021Z,99430.62
2018-12-21T14:36:02.415Z,99422.13
2018-12-21T14:38:29.805Z,99420.55
2018-12-21T14:40:57.200Z,99418.92
2018-12-21T14:43:24.590Z,99421.11
2018-12-21T14:45:51.987Z,99414.02
2018-12-21T14:48:19.369Z,99412.98
2018-12-21T14:50:46.770Z,99408.08
2018-12-21T14:53:14.163Z,99393.16
2018-12-21T14:55:41.546Z,99391.21
2018-12-21T14:58:08.946Z,99386.73
2018-12-21T15:00:36.334Z,99384.55
2018-12-21T15:03:03.730Z,99378.59
2018-12-21T15:05:31.122Z,99376.20
2018-12-21T15:07:58.518Z,99366.81
2018-12-21T15:10:25.907Z,99371.15
2018-12-21T15:12:53.304Z,99370.02
2018-12-21T15:15:20.694Z,99362.53
2018-12-21T15:17:48.090Z,99352.91
2018-12-21T15:20:15.474Z,99345.26
2018-12-21T15:22:42.873Z,99343.44
2018-12-21T15:25:10.266Z,99343.20
2018-12-21T15:27:37.661Z,99340.45
2018-12-21T15:30:07.087Z,99337.70
2018-12-21T15:32:34.482Z,99330.82
2018-12-21T15:35:01.867Z,99327.27
2018-12-21T15:37:29.271Z,99320.98
2018-12-21T15:39:56.665Z,99322.13
2018-12-21T15:42:24.070Z,99321.77
2018-12-21T15:44:51.455Z,99321.07
2018-12-21T15:47:18.846Z,99311.08
2018-12-21T15:49:46.246Z,99315.45
2018-12-21T15:52:13.634Z,99305.82
2018-12-21T15:54:41.035Z,99307.20
2018-12-21T15:57:08.422Z,99306.83
2018-12-21T15:59:35.830Z,99301.20
2018-12-21T16:02:03.226Z,99302.43
2018-12-21T16:04:30.622Z,99301.73
2018-12-21T16:06:58.009Z,99297.69
2018-12-21T16:09:25.413Z,99290.77
2018-12-21T16:11:52.887Z,99293.97
2018-12-21T16:14:20.282Z,99302.91
2018-12-21T16:16:47.677Z,99304.56
2018-12-21T16:19:15.075Z,99298.45
2018-12-21T16:21:43.622Z,99292.24
2018-12-21T16:24:11.166Z,99283.75
2018-12-21T16:26:38.554Z,99276.42
2018-12-21T16:29:05.962Z,99263.23
2018-12-21T16:31:33.371Z,99269.34
2018-12-21T16:34:00.771Z,99268.17
2018-12-21T16:36:28.189Z,99278.92
2018-12-21T16:38:55.596Z,99272.43
2018-12-21T16:41:22.978Z,99269.83
2018-12-21T16:43:50.382Z,99251.75
2018-12-21T16:46:17.768Z,99259.58
2018-12-21T16:48:47.227Z,99255.98
2018-12-21T16:51:14.567Z,99254.55
2018-12-21T16:53:41.974Z,99251.94
2018-12-21T16:56:12.631Z,99249.55
2018-12-21T16:58:38.754Z,99250.86
2018-12-21T17:01:06.155Z,99253.78
2018-12-21T17:03:33.543Z,99244.63
2018-12-21T17:06:01.360Z,99234.91
2018-12-21T17:08:28.761Z,99233.45
2018-12-21T17:10:56.147Z,99230.83
2018-12-21T17:13:23.539Z,99234.68
2018-12-21T17:15:50.938Z,99227.33
2018-12-21T17:18:18.640Z,99226.88
2018-12-21T17:20:46.320Z,99218.78
2018-12-21T17:23:13.915Z,99217.95
2018-12-21T17:25:41.475Z,99210.61
2018-12-21T17:28:09.109Z,99210.72
2018-12-21T17:30:36.797Z,99207.09
2018-12-21T17:33:04.426Z,99208.20
2018-12-21T17:35:32.142Z,99203.39
2018-12-21T17:37:59.834Z,99208.44
2018-12-21T17:40:27.609Z,99204.19
2018-12-21T17:42:55.255Z,99199.17
2018-12-21T17:45:22.959Z,99193.36
2018-12-21T17:47:50.681Z,99202.15
2018-12-21T17:50:18.468Z,99198.90
2018-12-21T17:52:46.134Z,99202.70
2018-12-21T17:55:13.773Z,99191.92
2018-12-21T17:57:41.604Z,99192.81
2018-12-21T18:00:12.723Z,99205.36
2018-12-21T18:02:40.645Z,99208.01
2018-12-21T18:05:08.180Z,99202.36
2018-12-21T18:07:35.979Z,99206.77
2018-12-21T18:10:06.902Z,99207.81
2018-12-21T18:12:34.462Z,99212.80
2018-12-21T18:15:02.130Z,99213.45
2018-12-21T18:17:29.702Z,99206.95
2018-12-21T18:19:57.336Z,99215.67
2018-12-21T18:22:24.902Z,99219.62
2018-12-21T18:24:52.459Z,99211.75
2018-12-21T18:27:20.135Z,99214.97
2018-12-21T18:29:48.246Z,99225.64
2018-12-21T18:32:19.334Z,99213.78
2018-12-21T18:34:47.275Z,99221.50
2018-12-21T18:37:25.168Z,99228.79
2018-12-21T18:39:52.795Z,99227.41
2018-12-21T18:42:20.467Z,99224.80
2018-12-21T18:44:48.190Z,99224.80
2018-12-21T18:47:16.165Z,99232.87
2018-12-21T18:49:43.869Z,99229.30
2018-12-21T18:52:12.311Z,99238.56
2018-12-21T18:54:39.928Z,99233.64
2018-12-21T18:57:07.535Z,99226.73
2018-12-21T18:59:37.798Z,99234.17
2018-12-21T19:02:05.606Z,99241.63
2018-12-21T19:04:34.079Z,99240.78
2018-12-21T19:07:01.698Z,99243.55
2018-12-21T19:09:29.499Z,99241.13
2018-12-21T19:11:57.539Z,99243.70
2018-12-21T19:14:25.217Z,99238.55
2018-12-21T19:16:54.438Z,99243.66
2018-12-21T19:19:24.314Z,99242.59
2018-12-21T19:21:52.088Z,99235.25
2018-12-21T19:24:20.307Z,99239.40
2018-12-21T19:26:55.599Z,99231.34
2018-12-21T19:29:18.176Z,99234.64
2018-12-21T19:31:46.055Z,99228.89
2018-12-21T19:34:14.208Z,99239.13
2018-12-21T19:36:41.880Z,99242.28
2018-12-21T19:39:09.942Z,99247.00
2018-12-21T19:41:37.387Z,99253.13
2018-12-21T19:44:04.796Z,99260.81
2018-12-21T19:46:32.194Z,99265.56
2018-12-21T19:48:59.606Z,99262.20
2018-12-21T19:51:26.998Z,99269.71
2018-12-21T19:53:54.442Z,99269.71
2018-12-21T19:56:22.367Z,99273.05
2018-12-21T19:58:49.770Z,99268.91
2018-12-21T20:01:17.166Z,99271.09
2018-12-21T20:03:44.624Z,99260.19
2018-12-21T20:06:12.010Z,99286.06
2018-12-21T20:08:39.406Z,99279.16
2018-12-21T20:11:07.258Z,99292.97
2018-12-21T20:13:34.650Z,99294.08
2018-12-21T20:16:02.054Z,99287.70
2018-12-21T20:18:29.449Z,99290.22
2018-12-21T20:20:56.854Z,99289.36
2018-12-21T20:23:24.248Z,99300.70
2018-12-21T20:25:51.650Z,99300.86
2018-12-21T20:28:19.042Z,99289.77
2018-12-21T20:30:46.463Z,99306.66
2018-12-21T20:33:14.674Z,99315.47
2018-12-21T20:35:42.079Z,99318.57
2018-12-21T20:38:09.469Z,99316.56
2018-12-21T20:40:36.873Z,99329.70
2018-12-21T20:43:04.705Z,99342.22
2018-12-21T20:45:32.098Z,99337.45
2018-12-21T20:47:59.491Z,99346.39
2018-12-21T20:50:26.894Z,99358.33
2018-12-21T20:52:54.294Z,99374.02
2018-12-21T20:55:21.730Z,99385.13
2018-12-21T20:57:49.341Z,99393.69
2018-12-21T21:00:16.749Z,99401.33
2018-12-21T21:02:44.147Z,99397.27
2018-12-21T21:05:11.554Z,99411.13
2018-12-21T21:07:38.961Z,99417.50
2018-12-21T21:10:10.091Z,99414.80
2018-12-21T21:12:37.488Z,99421.73
2018-12-21T21:15:08.810Z,99439.39
2018-12-21T21:17:36.198Z,99440.46
2018-12-21T21:20:07.351Z,99443.41
2018-12-21T21:22:34.749Z,99468.28
2018-12-21T21:25:02.162Z,99477.62
2018-12-21T21:27:30.495Z,99485.23
2018-12-21T21:29:58.845Z,99486.17
2018-12-21T21:32:26.441Z,99479.78
2018-12-21T21:34:53.829Z,99494.41
2018-12-21T21:37:21.217Z,99500.30
2018-12-21T21:39:48.611Z,99520.20
2018-12-21T21:42:16.001Z,99521.37
2018-12-21T21:44:43.397Z,99505.78
2018-12-21T21:47:10.797Z,99542.44
2018-12-21T21:49:38.274Z,99530.98
2018-12-21T21:52:05.689Z,99554.64
2018-12-21T21:54:33.077Z,99554.55
2018-12-21T21:57:00.477Z,99555.12
2018-12-21T21:59:27.869Z,99565.00
2018-12-21T22:01:55.265Z,99569.34
2018-12-21T22:04:22.658Z,99574.84
2018-12-21T22:06:50.146Z,99583.56
2018-12-21T22:09:17.535Z,99580.59
2018-12-21T22:11:44.938Z,99588.86
2018-12-21T22:14:12.323Z,99595.51
2018-12-21T22:16:39.731Z,99626.05
2018-12-21T22:19:07.118Z,99618.00
2018-12-21T22:21:34.536Z,99620.54
2018-12-21T22:24:01.927Z,99632.38
2018-12-21T22:26:29.314Z,99635.45
2018-12-21T22:28:56.720Z,99634.34
2018-12-21T22:31:24.114Z,99643.64
2018-12-21T22:33:51.510Z,99659.72
2018-12-21T22:36:18.901Z,99669.92
2018-12-21T22:38:46.290Z,99671.66
2018-12-21T22:41:13.682Z,99668.09
2018-12-21T22:43:41.079Z,99679.71
2018-12-21T22:46:08.465Z,99686.00
2018-12-21T22:48:35.862Z,99681.75
2018-12-21T22:51:03.256Z,99692.09
2018-12-21T22:53:30.660Z,99704.14
2018-12-21T22:55:58.053Z,99707.34
2018-12-21T22:58:25.449Z,99721.13
2018-12-21T23:00:52.834Z,99737.55
2018-12-21T23:03:20.238Z,99736.49
2018-12-21T23:05:47.630Z,99731.44
2018-12-21T23:08:15.026Z,99731.80
2018-12-21T23:10:42.414Z,99759.13
2018-12-21T23:13:09.810Z,99746.84
2018-12-21T23:15:37.194Z,99742.45
2018-12-21T23:18:04.599Z,99751.53
2018-12-21T23:20:31.990Z,99767.95
2018-12-21T23:22:59.410Z,99787.45
2018-12-21T23:25:26.790Z,99776.10
2018-12-21T23:27:54.181Z,99793.20
2018-12-21T23:30:21.586Z,99780.56
2018-12-21T23:32:48.974Z,99790.20
2018-12-21T23:35:16.382Z,99793.41
2018-12-21T23:37:43.765Z,99801.91
2018-12-21T23:40:11.167Z,99803.64
2018-12-21T23:42:38.554Z,99814.20
2018-12-21T23:45:06.390Z,99822.02
2018-12-21T23:47:33.783Z,99819.02
2018-12-21T23:50:01.177Z,99831.97
2018-12-21T23:52:28.661Z,99835.32
2018-12-21T23:54:56.057Z,99837.48
2018-12-21T23:57:23.450Z,99841.95
2018-12-21T23:59:50.842Z,99842.98
